Details for Ryanair at EGSS




Go Back


Latest METAR
Local Time

EGSS 240720Z AUTO 36007KT 6000 BKN005 11/10 Q1021

24/05/2018, 08:50:09

Description
Results
Ryanair Logo
Number of Pilots based at EGSS
2 Pilots Based here
Number of Ryanair Flights Departed from EGSS
27 Flights Departed
Number of Ryanair Flights Arrived at EGSS
29 Flights Arrived
Number of Ryanair Schedules Departing from EGSS
416 Schedules
Number of Ryanair Schedules Arriving at EGSS
412 Schedules
Number of Ryanair Schedules Departing from EGSS availible today
190 Schedules Today
Number of Ryanair Schedules Arriving at EGSS availible today
190 Schedules Today
Average Landing Rate at EGSS
-239 fpm
Ryanair Average Landing Rate at EGSS
-241 fpm
Total Fuel Purchased at EGSS by Ryanair
112,118.74 kgs / 247,176.97 lbs

Pilots Based at EGSS


Pilot ID
Pilot Name
Pilot Rank
No. of Flights
No. of Flying Hours
Ian Hart
51
167.28
Joerg Pfeiffer
39
50.27
Content